Etusivu
METAR-TAF:

METAR-TAF

Lentoasemat :

DeRidder, Louisiana, Yhdysvallat

Leveyspiiri: 30-49-54N, Pituuspiiri: 093-20-23W, korkeus merenpinnasta: 63 m

Tämänhetkinen sää

Tämä raportti tehtiin 20 minuuttia sitten, kello 03.35 UTC
tyyntä
Lämpötila 22°C
Kosteus 94%
Ilmanpaine 1018 hPa
Näkyvyys: 16.1 km
Hajanaisia pilviä 700 ft:n korkeudessa
Pilvistä 1800 ft:n korkeudessa

METAR: KDRI 070335Z AUTO 00000KT 10SM SCT007 OVC018 22/21 A3006 RMK AO2 T02160208

Aika: 22:55 (03:55 UTC)


TAF: puuttuu

Säähavainnot ja -ennusteet yli 4000 lentoasemalta (METAR- ja TAF-raportit).

Käytössä olevat sääasemat on merkitty karttaan keltaisilla ja punaisilla pisteillä.

Aseta hiiri pisteen päälle nähdäksesi sääaseman nimen.

Klikkaa sitten nähdäksesi säähavainnot ja -ennusteet.

Kartan vaihtaminen: klikkaa mustalla rastilla varustettuja vihreitä pisteitä, niin voit zoomata sisään; viivalla varustettua vihreää pistettä, niin voit zoomata ulos tai vihreitä nuolia, niin pääset viereisille kartoille.


METAR-TAF: